createdAt,value
2017-09-20T00:02:07.912Z,19.07
2017-09-20T00:04:35.082Z,15.70
2017-09-20T00:07:01.536Z,19.73
2017-09-20T00:09:28.024Z,18.37
2017-09-20T00:11:57.475Z,19.47
2017-09-20T00:14:23.976Z,20.03
2017-09-20T00:16:50.423Z,23.30
2017-09-20T00:19:16.844Z,18.77
2017-09-20T00:21:43.241Z,25.90
2017-09-20T00:24:09.779Z,20.00
2017-09-20T00:26:36.880Z,18.13
2017-09-20T00:29:03.319Z,20.50
2017-09-20T00:31:29.779Z,21.90
2017-09-20T00:33:56.280Z,17.00
2017-09-20T00:36:23.679Z,20.30
2017-09-20T00:38:50.903Z,20.53
2017-09-20T00:41:17.395Z,21.67
2017-09-20T00:43:44.613Z,22.23
2017-09-20T00:46:11.050Z,25.33
2017-09-20T00:48:37.500Z,26.47
2017-09-20T00:51:04.767Z,25.47
2017-09-20T00:53:31.237Z,21.93
2017-09-20T00:55:57.679Z,23.70
2017-09-20T00:58:24.210Z,21.43
2017-09-20T01:00:50.679Z,27.37
2017-09-20T01:03:17.874Z,23.33
2017-09-20T01:05:44.929Z,24.03
2017-09-20T01:08:12.184Z,23.10
2017-09-20T01:10:38.648Z,28.73
2017-09-20T01:13:05.124Z,25.50
2017-09-20T01:15:31.576Z,26.77
2017-09-20T01:17:58.011Z,23.97
2017-09-20T01:20:36.880Z,30.20
2017-09-20T01:23:15.583Z,29.30
2017-09-20T01:25:43.195Z,25.43
2017-09-20T01:28:09.642Z,23.80
2017-09-20T01:30:36.087Z,29.90
2017-09-20T01:33:02.543Z,28.07
2017-09-20T01:35:29.065Z,29.57
2017-09-20T01:37:56.261Z,26.30
2017-09-20T01:40:23.457Z,25.73
2017-09-20T01:42:49.908Z,23.77
2017-09-20T01:45:16.328Z,24.23
2017-09-20T01:47:42.768Z,24.63
2017-09-20T01:50:09.204Z,30.73
2017-09-20T01:52:35.868Z,26.67
2017-09-20T01:55:02.323Z,29.70
2017-09-20T01:57:29.638Z,26.33
2017-09-20T01:59:56.811Z,26.97
2017-09-20T02:02:23.291Z,30.47
2017-09-20T02:04:49.752Z,28.10
2017-09-20T02:07:16.158Z,29.07
2017-09-20T02:09:43.359Z,29.90
2017-09-20T02:12:09.810Z,28.27
2017-09-20T02:14:37.034Z,23.17
2017-09-20T02:17:03.475Z,30.60
2017-09-20T02:19:29.892Z,29.97
2017-09-20T02:21:56.307Z,24.27
2017-09-20T02:24:22.737Z,25.43
2017-09-20T02:26:49.168Z,28.07
2017-09-20T02:29:15.572Z,26.10
2017-09-20T02:31:42.006Z,24.43
2017-09-20T02:34:08.447Z,26.13
2017-09-20T02:36:34.919Z,24.10
2017-09-20T02:39:01.387Z,27.27
2017-09-20T02:41:29.152Z,28.40
2017-09-20T02:43:56.350Z,27.33
2017-09-20T02:46:22.838Z,23.57
2017-09-20T02:48:50.049Z,27.97
2017-09-20T02:51:16.497Z,27.33
2017-09-20T02:53:42.923Z,34.50
2017-09-20T02:56:09.478Z,28.33
2017-09-20T02:58:36.839Z,31.23
2017-09-20T03:01:03.353Z,26.60
2017-09-20T03:03:29.887Z,36.27
2017-09-20T03:05:57.088Z,34.90
2017-09-20T03:08:23.608Z,34.30
2017-09-20T03:10:50.061Z,37.77
2017-09-20T03:13:16.520Z,33.67
2017-09-20T03:15:42.934Z,35.00
2017-09-20T03:18:10.311Z,37.40
2017-09-20T03:20:36.734Z,32.53
2017-09-20T03:23:03.141Z,30.00
2017-09-20T03:25:30.340Z,34.53
2017-09-20T03:27:56.775Z,35.63
2017-09-20T03:30:23.349Z,36.70
2017-09-20T03:32:49.792Z,37.33
2017-09-20T03:35:16.199Z,32.37
2017-09-20T03:37:42.620Z,30.73
2017-09-20T03:40:09.044Z,34.83
2017-09-20T03:42:35.494Z,30.17
2017-09-20T03:45:01.919Z,31.60
2017-09-20T03:47:29.847Z,32.40
2017-09-20T03:49:56.259Z,29.63
2017-09-20T03:52:22.689Z,32.80
2017-09-20T03:54:49.128Z,28.03
2017-09-20T03:57:15.559Z,28.00
2017-09-20T03:59:42.036Z,31.03
2017-09-20T04:02:08.523Z,28.73
2017-09-20T04:04:34.977Z,35.73
2017-09-20T04:07:02.935Z,32.37
2017-09-20T04:09:29.410Z,27.87
2017-09-20T04:11:55.827Z,32.83
2017-09-20T04:14:22.255Z,26.47
2017-09-20T04:16:48.666Z,30.30
2017-09-20T04:19:15.071Z,30.20
2017-09-20T04:21:42.237Z,26.07
2017-09-20T04:24:09.487Z,24.93
2017-09-20T04:26:35.925Z,28.43
2017-09-20T04:29:02.442Z,27.50
2017-09-20T04:31:29.618Z,36.77
2017-09-20T04:33:56.014Z,29.37
2017-09-20T04:36:22.528Z,25.93
2017-09-20T04:38:49.727Z,29.77
2017-09-20T04:41:16.161Z,34.67
2017-09-20T04:43:42.631Z,27.97
2017-09-20T04:46:09.054Z,25.60
2017-09-20T04:48:35.492Z,27.60
2017-09-20T04:51:01.891Z,32.20
2017-09-20T04:53:29.099Z,29.73
2017-09-20T04:55:56.351Z,28.40
2017-09-20T04:58:22.795Z,34.10
2017-09-20T05:00:50.026Z,30.20
2017-09-20T05:03:16.463Z,27.93
2017-09-20T05:05:42.900Z,29.70
2017-09-20T05:08:09.312Z,31.10
2017-09-20T05:10:35.755Z,34.97
2017-09-20T05:13:02.163Z,27.20
2017-09-20T05:15:28.745Z,31.90
2017-09-20T05:17:55.175Z,32.10
2017-09-20T05:20:21.627Z,31.97
2017-09-20T05:22:48.080Z,29.20
2017-09-20T05:25:14.531Z,37.57
2017-09-20T05:27:42.294Z,31.87
2017-09-20T05:33:09.428Z,32.37
2017-09-20T05:35:36.887Z,31.70
2017-09-20T05:38:03.410Z,29.37
2017-09-20T05:40:30.000Z,35.80
2017-09-20T05:42:56.464Z,29.77
2017-09-20T05:45:23.041Z,27.80
2017-09-20T05:47:49.508Z,32.77
2017-09-20T05:50:16.026Z,28.50
2017-09-20T05:52:42.436Z,33.17
2017-09-20T05:55:09.595Z,39.03
2017-09-20T05:57:36.134Z,32.30
2017-09-20T06:00:02.667Z,35.77
2017-09-20T06:02:29.196Z,31.67
2017-09-20T06:04:55.646Z,29.57
2017-09-20T06:07:22.094Z,31.37
2017-09-20T06:09:48.823Z,30.23
2017-09-20T06:12:15.351Z,27.63
2017-09-20T06:14:41.863Z,28.57
2017-09-20T06:17:09.028Z,29.20
2017-09-20T06:19:35.632Z,31.87
2017-09-20T06:22:02.840Z,38.30
2017-09-20T06:24:29.412Z,38.43
2017-09-20T06:26:56.606Z,32.30
2017-09-20T06:29:23.618Z,32.60
2017-09-20T06:31:50.100Z,28.37
2017-09-20T06:34:16.634Z,28.77
2017-09-20T06:36:43.317Z,24.77
2017-09-20T06:39:10.003Z,26.53
2017-09-20T06:41:36.617Z,27.77
2017-09-20T06:44:04.145Z,27.67
2017-09-20T06:46:30.805Z,27.80
2017-09-20T06:48:57.247Z,27.00
2017-09-20T06:51:24.494Z,29.60
2017-09-20T06:53:50.949Z,25.93
2017-09-20T06:56:17.463Z,23.63
2017-09-20T06:58:43.981Z,25.73
2017-09-20T07:01:11.966Z,26.87
2017-09-20T07:03:39.115Z,26.23
2017-09-20T07:06:05.577Z,29.27
2017-09-20T07:08:32.237Z,28.80
2017-09-20T07:10:58.666Z,32.90
2017-09-20T07:13:25.155Z,28.13
2017-09-20T07:15:52.462Z,27.80
2017-09-20T07:18:18.940Z,26.07
2017-09-20T07:20:45.358Z,26.30
2017-09-20T07:23:11.786Z,24.63
2017-09-20T07:25:38.214Z,24.83
2017-09-20T07:28:04.651Z,23.10
2017-09-20T07:30:31.171Z,40.73
2017-09-20T07:32:57.694Z,25.93
2017-09-20T07:35:24.222Z,23.23
2017-09-20T07:37:50.686Z,24.40
2017-09-20T07:40:17.102Z,31.07
2017-09-20T07:42:43.532Z,24.23
2017-09-20T07:45:09.973Z,26.37
2017-09-20T07:47:36.464Z,23.60
2017-09-20T07:50:03.623Z,22.27
2017-09-20T07:52:30.175Z,49.60
2017-09-20T07:54:56.876Z,20.60
2017-09-20T07:57:23.416Z,21.20
2017-09-20T07:59:50.578Z,22.93
2017-09-20T08:02:17.746Z,22.80
2017-09-20T08:04:44.179Z,22.87
2017-09-20T08:07:10.700Z,24.27
2017-09-20T08:09:37.130Z,26.10
2017-09-20T08:12:03.534Z,19.70
2017-09-20T08:14:30.097Z,22.00
2017-09-20T08:16:56.563Z,23.43
2017-09-20T08:19:23.143Z,22.17
2017-09-20T08:21:49.703Z,23.77
2017-09-20T08:24:16.462Z,25.47
2017-09-20T08:26:43.135Z,26.53
2017-09-20T08:29:09.719Z,24.80
2017-09-20T08:31:36.184Z,26.80
2017-09-20T08:34:02.591Z,29.17
2017-09-20T08:36:29.276Z,21.87
2017-09-20T08:38:56.521Z,22.93
2017-09-20T08:41:22.935Z,23.40
2017-09-20T08:43:49.402Z,18.97
2017-09-20T08:46:15.937Z,18.80
2017-09-20T08:48:42.423Z,20.23
2017-09-20T08:51:08.881Z,20.70
2017-09-20T08:53:35.307Z,25.03
2017-09-20T08:56:01.888Z,20.13
2017-09-20T08:58:28.562Z,27.50
2017-09-20T09:00:55.010Z,23.70
2017-09-20T09:03:21.570Z,21.53
2017-09-20T09:05:48.031Z,23.00
2017-09-20T09:08:14.511Z,22.70
2017-09-20T09:10:40.950Z,22.10
2017-09-20T09:13:07.380Z,24.93
2017-09-20T09:15:34.247Z,24.50
2017-09-20T09:18:00.679Z,20.27
2017-09-20T09:20:27.294Z,21.90
2017-09-20T09:22:53.740Z,21.87
2017-09-20T09:25:20.227Z,18.30
2017-09-20T09:27:47.390Z,34.90
2017-09-20T09:30:14.558Z,21.90
2017-09-20T09:32:41.207Z,25.00
2017-09-20T09:35:07.800Z,20.37
2017-09-20T09:37:34.335Z,18.73
2017-09-20T09:40:00.871Z,22.27
2017-09-20T09:42:28.369Z,24.87
2017-09-20T09:44:55.056Z,17.90
2017-09-20T09:47:21.667Z,20.63
2017-09-20T09:49:48.127Z,19.60
2017-09-20T09:52:15.397Z,19.03
2017-09-20T09:54:41.851Z,18.20
2017-09-20T09:57:08.310Z,20.17
2017-09-20T09:59:34.865Z,22.60
2017-09-20T10:02:01.315Z,20.23
2017-09-20T10:07:06.820Z,17.97
2017-09-20T10:09:33.320Z,22.30
2017-09-20T10:12:00.779Z,17.33
2017-09-20T10:14:27.310Z,16.80
2017-09-20T10:16:57.886Z,16.63
2017-09-20T10:19:24.424Z,20.37
2017-09-20T10:21:50.874Z,16.93
2017-09-20T10:24:18.034Z,19.47
2017-09-20T10:26:44.455Z,15.70
2017-09-20T10:29:10.866Z,12.83
2017-09-20T10:31:37.284Z,14.27
2017-09-20T10:34:03.698Z,23.90
2017-09-20T10:36:31.100Z,12.77
2017-09-20T10:38:57.534Z,14.07
2017-09-20T10:41:24.885Z,17.17
2017-09-20T10:43:51.333Z,15.40
2017-09-20T10:46:17.742Z,13.20
2017-09-20T10:48:44.468Z,13.57
2017-09-20T10:51:10.972Z,19.63
2017-09-20T10:53:38.395Z,22.70
2017-09-20T10:56:04.866Z,13.77
2017-09-20T10:58:32.282Z,15.33
2017-09-20T11:00:58.733Z,14.50
2017-09-20T11:03:25.281Z,15.50
2017-09-20T11:05:51.747Z,15.20
2017-09-20T11:08:18.168Z,12.70
2017-09-20T11:10:45.507Z,11.40
2017-09-20T11:13:12.016Z,12.07
2017-09-20T11:15:39.039Z,13.37
2017-09-20T11:18:05.479Z,13.93
2017-09-20T11:20:32.294Z,13.57
2017-09-20T11:22:59.491Z,13.77
2017-09-20T11:25:26.048Z,14.20
2017-09-20T11:27:52.719Z,11.10
2017-09-20T11:30:19.288Z,12.20
2017-09-20T11:32:45.716Z,10.83
2017-09-20T11:35:12.151Z,13.97
2017-09-20T11:37:38.571Z,11.90
2017-09-20T11:40:05.020Z,12.23
2017-09-20T11:42:31.578Z,15.07
2017-09-20T11:44:58.977Z,9.30
2017-09-20T11:47:25.551Z,13.20
2017-09-20T11:49:52.002Z,13.70
2017-09-20T11:52:18.479Z,13.83
2017-09-20T11:54:44.989Z,14.13
2017-09-20T11:57:11.396Z,13.07
2017-09-20T11:59:37.953Z,14.13
2017-09-20T12:02:05.675Z,11.50
2017-09-20T12:04:32.306Z,18.10
2017-09-20T12:07:00.056Z,8.70
2017-09-20T12:09:26.686Z,14.00
2017-09-20T12:11:53.198Z,10.93
2017-09-20T12:14:20.488Z,17.50
2017-09-20T12:16:47.222Z,10.27
2017-09-20T12:19:13.715Z,8.23
2017-09-20T12:21:40.121Z,10.33
2017-09-20T12:24:06.555Z,10.87
2017-09-20T12:26:33.156Z,9.70
2017-09-20T12:28:59.912Z,7.90
2017-09-20T12:31:26.741Z,6.40
2017-09-20T12:33:53.404Z,4.73
2017-09-20T12:36:20.070Z,9.80
2017-09-20T12:38:47.881Z,12.73
2017-09-20T12:41:15.818Z,11.30
2017-09-20T12:43:42.282Z,9.30
2017-09-20T12:46:09.551Z,6.40
2017-09-20T12:48:35.953Z,9.80
2017-09-20T12:51:03.122Z,8.83
2017-09-20T12:53:29.604Z,9.53
2017-09-20T12:55:56.804Z,9.57
2017-09-20T12:58:24.173Z,6.73
2017-09-20T13:00:50.671Z,8.07
2017-09-20T13:03:18.150Z,27.90
2017-09-20T13:05:44.632Z,14.27
2017-09-20T13:08:11.847Z,7.70
2017-09-20T13:10:39.143Z,8.00
2017-09-20T13:13:06.322Z,11.33
2017-09-20T13:15:33.791Z,6.87
2017-09-20T13:18:00.251Z,7.90
2017-09-20T13:20:26.816Z,9.70
2017-09-20T13:22:54.725Z,7.00
2017-09-20T13:25:21.248Z,8.20
2017-09-20T13:27:48.430Z,6.40
2017-09-20T13:30:14.840Z,8.93
2017-09-20T13:32:42.147Z,13.57
2017-09-20T13:35:08.663Z,9.50
2017-09-20T13:37:35.330Z,12.57
2017-09-20T13:40:03.233Z,10.00
2017-09-20T13:42:30.694Z,8.10
2017-09-20T13:44:57.984Z,9.90
2017-09-20T13:47:25.277Z,11.13
2017-09-20T13:49:51.800Z,8.53
2017-09-20T13:52:18.253Z,12.07
2017-09-20T13:54:44.732Z,9.80
2017-09-20T13:57:11.183Z,6.87
2017-09-20T13:59:37.827Z,5.90
2017-09-20T14:02:05.207Z,5.63
2017-09-20T14:04:33.009Z,8.63
2017-09-20T14:06:59.583Z,7.83
2017-09-20T14:09:26.203Z,9.07
2017-09-20T14:11:52.694Z,8.40
2017-09-20T14:14:19.179Z,7.30
2017-09-20T14:16:45.804Z,7.80
2017-09-20T14:19:13.311Z,9.40
2017-09-20T14:21:40.076Z,12.50
2017-09-20T14:24:09.143Z,8.20
2017-09-20T14:26:37.625Z,9.90
2017-09-20T14:29:04.355Z,9.17
2017-09-20T14:31:31.655Z,10.30
2017-09-20T14:33:58.197Z,7.20
2017-09-20T14:36:24.796Z,9.10
2017-09-20T14:38:51.269Z,9.70
2017-09-20T14:41:17.670Z,8.27
2017-09-20T14:43:45.133Z,6.73
2017-09-20T14:46:11.594Z,7.77
2017-09-20T14:48:38.154Z,10.43
2017-09-20T14:51:05.463Z,11.07
2017-09-20T14:53:32.278Z,23.90
2017-09-20T14:55:59.499Z,9.73
2017-09-20T14:58:27.535Z,10.73
2017-09-20T15:00:54.011Z,6.73
2017-09-20T15:03:20.480Z,10.80
2017-09-20T15:05:47.985Z,7.20
2017-09-20T15:08:14.540Z,10.27
2017-09-20T15:10:41.800Z,8.50
2017-09-20T15:13:09.415Z,10.20
2017-09-20T15:15:35.971Z,6.80
2017-09-20T15:18:02.427Z,7.13
2017-09-20T15:20:29.039Z,6.37
2017-09-20T15:22:56.988Z,11.53
2017-09-20T15:25:24.157Z,11.17
2017-09-20T15:27:50.598Z,10.00
2017-09-20T15:30:17.072Z,8.80
2017-09-20T15:32:44.274Z,41.60
2017-09-20T15:35:10.758Z,10.23
2017-09-20T15:37:38.176Z,6.63
2017-09-20T15:40:05.388Z,8.07
2017-09-20T15:42:32.816Z,8.03
2017-09-20T15:44:59.307Z,6.87
2017-09-20T15:47:29.477Z,8.57
2017-09-20T15:49:56.683Z,5.93
2017-09-20T15:52:23.162Z,5.73
2017-09-20T15:54:49.627Z,6.10
2017-09-20T15:57:16.172Z,12.60
2017-09-20T15:59:42.708Z,10.60
2017-09-20T16:02:09.155Z,10.90
2017-09-20T16:04:35.588Z,12.00
2017-09-20T16:07:02.048Z,10.07
2017-09-20T16:09:29.503Z,8.90
2017-09-20T16:11:56.706Z,12.03
2017-09-20T16:14:24.539Z,9.97
2017-09-20T16:16:51.066Z,10.83
2017-09-20T16:19:17.555Z,9.30
2017-09-20T16:21:44.007Z,8.33
2017-09-20T16:24:10.508Z,8.50
2017-09-20T16:26:37.016Z,8.93
2017-09-20T16:29:03.483Z,8.70
2017-09-20T16:31:30.053Z,10.57
2017-09-20T16:33:56.507Z,9.63
2017-09-20T16:36:23.002Z,6.87
2017-09-20T16:38:49.447Z,8.57
2017-09-20T16:41:15.959Z,8.17
2017-09-20T16:43:42.430Z,10.87
2017-09-20T16:46:08.929Z,8.03
2017-09-20T16:48:35.430Z,7.83
2017-09-20T16:51:01.883Z,8.60
2017-09-20T16:53:29.329Z,10.93
2017-09-20T16:55:55.792Z,11.93
2017-09-20T16:58:22.293Z,11.70
2017-09-20T17:00:48.786Z,15.10
2017-09-20T17:03:15.206Z,16.33
2017-09-20T17:05:41.674Z,15.77
2017-09-20T17:08:08.844Z,11.70
2017-09-20T17:10:35.299Z,15.07
2017-09-20T17:13:01.715Z,11.57
2017-09-20T17:15:29.051Z,11.80
2017-09-20T17:17:56.254Z,11.03
2017-09-20T17:20:22.773Z,15.80
2017-09-20T17:22:49.277Z,13.67
2017-09-20T17:25:15.726Z,13.90
2017-09-20T17:27:43.301Z,10.50
2017-09-20T17:30:09.783Z,9.00
2017-09-20T17:32:36.408Z,9.50
2017-09-20T17:35:02.879Z,11.90
2017-09-20T17:37:29.394Z,12.97
2017-09-20T17:39:56.093Z,16.83
2017-09-20T17:42:22.702Z,22.93
2017-09-20T17:44:49.205Z,19.73
2017-09-20T17:47:16.392Z,22.67
2017-09-20T17:49:43.606Z,30.23
2017-09-20T17:52:10.190Z,67.10
2017-09-20T17:54:36.671Z,48.60
2017-09-20T17:57:03.153Z,77.00
2017-09-20T17:59:29.625Z,79.77
2017-09-20T18:01:56.109Z,88.10
2017-09-20T18:04:22.596Z,76.03
2017-09-20T18:06:49.137Z,59.93
2017-09-20T18:09:15.651Z,72.23
2017-09-20T18:11:42.138Z,53.33
2017-09-20T18:14:08.584Z,28.37
2017-09-20T18:16:35.934Z,18.10
2017-09-20T18:19:04.080Z,18.00
2017-09-20T18:21:32.012Z,20.00
2017-09-20T18:23:58.507Z,17.20
2017-09-20T18:26:25.714Z,16.20
2017-09-20T18:28:52.219Z,17.13
2017-09-20T18:31:18.649Z,15.97
2017-09-20T18:33:45.080Z,17.73
2017-09-20T18:36:11.543Z,21.20
2017-09-20T18:38:38.051Z,18.80
2017-09-20T18:41:04.520Z,18.10
2017-09-20T18:43:30.993Z,19.20
2017-09-20T18:45:58.243Z,20.73
2017-09-20T18:48:25.478Z,28.80
2017-09-20T18:50:51.934Z,33.10
2017-09-20T18:53:19.124Z,29.13
2017-09-20T18:55:45.579Z,30.43
2017-09-20T18:58:12.029Z,29.87
2017-09-20T19:00:39.315Z,28.60
2017-09-20T19:03:05.832Z,29.00
2017-09-20T19:05:33.164Z,27.37
2017-09-20T19:07:59.590Z,28.70
2017-09-20T19:10:26.190Z,27.47
2017-09-20T19:12:52.669Z,32.70
2017-09-20T19:15:19.179Z,23.67
2017-09-20T19:17:46.923Z,26.67
2017-09-20T19:20:13.394Z,28.60
2017-09-20T19:22:39.869Z,27.73
2017-09-20T19:25:06.274Z,28.30
2017-09-20T19:27:32.901Z,25.97
2017-09-20T19:29:59.499Z,29.03
2017-09-20T19:32:26.247Z,24.50
2017-09-20T19:34:52.861Z,26.80
2017-09-20T19:37:19.442Z,23.80
2017-09-20T19:39:45.912Z,25.60
2017-09-20T19:42:13.080Z,27.03
2017-09-20T19:44:40.291Z,23.90
2017-09-20T19:47:06.879Z,22.57
2017-09-20T19:49:33.645Z,24.10
2017-09-20T19:52:00.101Z,25.60
2017-09-20T19:54:26.594Z,26.23
2017-09-20T19:56:53.185Z,25.53
2017-09-20T19:59:20.479Z,24.53
2017-09-20T20:01:46.930Z,25.30
2017-09-20T20:04:13.473Z,25.57
2017-09-20T20:06:39.978Z,24.13
2017-09-20T20:09:06.552Z,23.33
2017-09-20T20:11:33.237Z,24.30
2017-09-20T20:13:59.711Z,25.03
2017-09-20T20:16:26.358Z,29.50
2017-09-20T20:18:52.912Z,26.60
2017-09-20T20:21:20.165Z,27.30
2017-09-20T20:23:46.999Z,20.53
2017-09-20T20:26:14.269Z,25.10
2017-09-20T20:28:41.583Z,24.27
2017-09-20T20:31:08.244Z,23.93
2017-09-20T20:33:34.785Z,21.87
2017-09-20T20:36:03.666Z,22.60
2017-09-20T20:38:30.196Z,22.87
2017-09-20T20:40:56.740Z,19.20
2017-09-20T20:43:23.307Z,20.60
2017-09-20T20:45:49.801Z,20.67
2017-09-20T20:48:16.328Z,19.77
2017-09-20T20:50:42.810Z,32.33
2017-09-20T20:53:10.798Z,17.47
2017-09-20T20:55:37.252Z,19.13
2017-09-20T20:58:03.674Z,21.90
2017-09-20T21:00:30.463Z,17.77
2017-09-20T21:02:57.666Z,17.83
2017-09-20T21:05:24.142Z,20.80
2017-09-20T21:07:50.632Z,15.53
2017-09-20T21:10:17.065Z,17.57
2017-09-20T21:12:43.486Z,21.80
2017-09-20T21:15:10.663Z,23.00
2017-09-20T21:17:37.097Z,20.83
2017-09-20T21:20:03.544Z,17.00
2017-09-20T21:22:30.079Z,16.80
2017-09-20T21:24:56.518Z,20.40
2017-09-20T21:27:23.080Z,17.20
2017-09-20T21:29:49.570Z,18.77
2017-09-20T21:32:15.975Z,21.00
2017-09-20T21:34:43.115Z,19.17
2017-09-20T21:37:10.380Z,17.67
2017-09-20T21:39:36.956Z,19.40
2017-09-20T21:42:03.501Z,20.70
2017-09-20T21:44:30.139Z,17.00
2017-09-20T21:46:56.582Z,20.97
2017-09-20T21:49:23.046Z,16.60
2017-09-20T21:51:50.238Z,19.50
2017-09-20T21:54:17.474Z,19.37
2017-09-20T21:56:43.866Z,19.20
2017-09-20T21:59:11.830Z,26.70
2017-09-20T22:01:38.998Z,20.27
2017-09-20T22:04:05.402Z,21.20
2017-09-20T22:06:32.011Z,22.00
2017-09-20T22:08:58.442Z,25.70
2017-09-20T22:11:24.987Z,21.73
2017-09-20T22:13:51.444Z,19.53
2017-09-20T22:16:30.110Z,24.20
2017-09-20T22:19:08.995Z,22.63
2017-09-20T22:21:48.346Z,24.87
2017-09-20T22:24:28.670Z,20.80
2017-09-20T22:26:54.945Z,17.90
2017-09-20T22:29:22.147Z,20.13
2017-09-20T22:31:48.587Z,28.43
2017-09-20T22:34:15.018Z,20.00
2017-09-20T22:36:41.414Z,24.87
2017-09-20T22:39:07.842Z,20.43
2017-09-20T22:41:34.336Z,22.67
2017-09-20T22:44:01.506Z,22.27
2017-09-20T22:46:28.140Z,23.60
2017-09-20T22:48:54.609Z,20.43
2017-09-20T22:51:21.046Z,23.60
2017-09-20T22:53:47.474Z,25.33
2017-09-20T22:56:13.969Z,23.30
2017-09-20T22:58:41.274Z,22.10
2017-09-20T23:01:07.734Z,25.30
2017-09-20T23:03:34.302Z,23.53
2017-09-20T23:06:01.444Z,22.00
2017-09-20T23:08:28.787Z,25.23
2017-09-20T23:10:56.233Z,30.33
2017-09-20T23:13:23.557Z,25.17
2017-09-20T23:15:51.488Z,20.93
2017-09-20T23:18:18.649Z,28.57
2017-09-20T23:20:45.790Z,22.87
2017-09-20T23:23:12.949Z,26.13
2017-09-20T23:25:39.418Z,23.17
2017-09-20T23:28:05.856Z,24.90
2017-09-20T23:30:32.302Z,27.90
2017-09-20T23:32:58.751Z,24.47
2017-09-20T23:35:26.783Z,25.70
2017-09-20T23:37:54.720Z,24.87
2017-09-20T23:40:21.274Z,20.50
2017-09-20T23:42:47.721Z,29.77
2017-09-20T23:45:14.154Z,23.03
2017-09-20T23:47:40.580Z,23.90
2017-09-20T23:50:07.010Z,27.00
2017-09-20T23:52:33.419Z,26.97
2017-09-20T23:55:00.565Z,27.63
2017-09-20T23:57:27.238Z,25.27
2017-09-20T23:59:53.674Z,24.60
